createdAt,value
2023-04-15T00:01:00.314Z,72.81
2023-04-15T00:03:27.442Z,73.04
2023-04-15T00:05:54.178Z,74.07
2023-04-15T00:08:20.817Z,72.46
2023-04-15T00:10:49.745Z,72.41
2023-04-15T00:13:16.639Z,72.72
2023-04-15T00:15:43.411Z,74.01
2023-04-15T00:18:10.110Z,75.60
2023-04-15T00:20:37.238Z,73.58
2023-04-15T00:23:04.226Z,75.13
2023-04-15T00:25:31.307Z,74.87
2023-04-15T00:27:58.415Z,76.11
2023-04-15T00:30:25.771Z,74.97
2023-04-15T00:32:52.820Z,73.94
2023-04-15T00:35:21.760Z,73.91
2023-04-15T00:37:50.430Z,73.65
2023-04-15T00:40:18.842Z,74.01
2023-04-15T00:42:45.757Z,74.13
2023-04-15T00:45:13.281Z,74.59
2023-04-15T00:47:42.348Z,74.68
2023-04-15T00:50:09.619Z,75.79
2023-04-15T00:52:36.449Z,75.05
2023-04-15T00:55:04.775Z,75.50
2023-04-15T00:57:31.789Z,74.54
2023-04-15T00:59:58.714Z,75.72
2023-04-15T01:02:25.583Z,75.43
2023-04-15T01:04:52.470Z,76.10
2023-04-15T01:07:19.463Z,76.09
2023-04-15T01:09:46.308Z,76.53
2023-04-15T01:12:14.302Z,76.37
2023-04-15T01:14:41.205Z,76.48
2023-04-15T01:17:08.873Z,76.53
2023-04-15T01:19:36.997Z,77.43
2023-04-15T01:22:03.810Z,77.40
2023-04-15T01:24:32.819Z,78.69
2023-04-15T01:26:59.465Z,78.46
2023-04-15T01:29:27.472Z,77.96
2023-04-15T01:31:55.139Z,77.65
2023-04-15T01:34:22.355Z,78.98
2023-04-15T01:36:53.413Z,79.17
2023-04-15T01:39:21.599Z,79.12
2023-04-15T01:41:48.683Z,79.05
2023-04-15T01:44:16.483Z,78.36
2023-04-15T01:46:43.099Z,80.93
2023-04-15T01:49:09.728Z,79.90
2023-04-15T01:51:36.257Z,78.12
2023-04-15T01:54:02.898Z,77.22
2023-04-15T01:56:29.977Z,78.20
2023-04-15T01:58:57.032Z,78.59
2023-04-15T02:01:23.884Z,78.30
2023-04-15T02:03:50.729Z,80.80
2023-04-15T02:06:18.818Z,78.75
2023-04-15T02:08:45.438Z,79.66
2023-04-15T02:11:12.472Z,79.66
2023-04-15T02:13:39.079Z,78.61
2023-04-15T02:16:15.215Z,78.69
2023-04-15T02:18:44.633Z,80.36
2023-04-15T02:21:11.473Z,79.84
2023-04-15T02:23:38.274Z,81.50
2023-04-15T02:26:04.816Z,80.70
2023-04-15T02:28:31.633Z,82.35
2023-04-15T02:30:59.871Z,80.45
2023-04-15T02:33:26.551Z,80.17
2023-04-15T02:35:53.334Z,80.43
2023-04-15T02:38:20.092Z,79.02
2023-04-15T02:40:49.735Z,78.51
2023-04-15T02:43:17.557Z,79.05
2023-04-15T02:45:44.465Z,79.90
2023-04-15T02:48:13.473Z,79.50
2023-04-15T02:50:40.816Z,78.95
2023-04-15T02:53:10.322Z,79.41
2023-04-15T02:55:37.009Z,77.79
2023-04-15T02:58:03.619Z,78.69
2023-04-15T03:00:30.393Z,77.88
2023-04-15T03:03:02.535Z,77.59
2023-04-15T03:05:30.033Z,79.00
2023-04-15T03:07:56.629Z,79.20
2023-04-15T03:10:23.206Z,78.36
2023-04-15T03:12:49.871Z,78.25
2023-04-15T03:15:19.245Z,79.34
2023-04-15T03:17:49.789Z,79.65
2023-04-15T03:20:17.265Z,79.71
2023-04-15T03:22:43.992Z,80.34
2023-04-15T03:25:11.880Z,80.57
2023-04-15T03:27:39.345Z,80.98
2023-04-15T03:30:06.820Z,80.99
2023-04-15T03:32:36.463Z,81.65
2023-04-15T03:35:03.104Z,81.40
2023-04-15T03:37:29.663Z,80.40
2023-04-15T03:39:56.575Z,81.91
2023-04-15T03:42:23.423Z,81.90
2023-04-15T03:44:50.110Z,81.89
2023-04-15T03:47:16.656Z,81.34
2023-04-15T03:49:43.243Z,81.73
2023-04-15T03:52:09.796Z,81.37
2023-04-15T03:54:36.814Z,80.82
2023-04-15T03:57:03.457Z,81.57
2023-04-15T03:59:30.056Z,82.22
2023-04-15T04:01:56.768Z,82.29
2023-04-15T04:04:23.542Z,83.54
2023-04-15T04:06:50.305Z,83.50
2023-04-15T04:09:16.907Z,81.97
2023-04-15T04:11:43.526Z,83.55
2023-04-15T04:14:10.615Z,85.33
2023-04-15T04:16:37.205Z,85.18
2023-04-15T04:19:04.114Z,83.11
2023-04-15T04:21:31.537Z,82.17
2023-04-15T04:23:59.067Z,83.22
2023-04-15T04:26:26.051Z,84.81
2023-04-15T04:28:52.656Z,85.32
2023-04-15T04:31:19.275Z,85.08
2023-04-15T04:33:45.919Z,83.44
2023-04-15T04:36:12.452Z,84.21
2023-04-15T04:38:39.102Z,83.21
2023-04-15T04:41:05.935Z,84.01
2023-04-15T04:43:32.570Z,83.40
2023-04-15T04:46:01.576Z,82.55
2023-04-15T04:48:28.175Z,83.14
2023-04-15T04:50:54.954Z,82.68
2023-04-15T04:53:21.586Z,82.46
2023-04-15T04:55:48.162Z,83.07
2023-04-15T04:58:14.759Z,83.04
2023-04-15T05:00:42.139Z,83.30
2023-04-15T05:03:09.070Z,82.94
2023-04-15T05:05:37.032Z,83.35
2023-04-15T05:08:03.686Z,81.62
2023-04-15T05:10:30.503Z,82.37
2023-04-15T05:12:57.620Z,83.52
2023-04-15T05:15:24.651Z,82.83
2023-04-15T05:17:51.683Z,82.66
2023-04-15T05:20:18.332Z,83.05
2023-04-15T05:22:44.940Z,83.83
2023-04-15T05:25:12.028Z,83.43
2023-04-15T05:27:39.840Z,81.99
2023-04-15T05:30:07.305Z,81.88
2023-04-15T05:32:33.947Z,81.58
2023-04-15T05:35:03.724Z,80.92
2023-04-15T05:37:32.173Z,82.56
2023-04-15T05:39:58.782Z,82.63
2023-04-15T05:42:25.572Z,82.73
2023-04-15T05:44:52.130Z,81.75
2023-04-15T05:47:18.750Z,82.96
2023-04-15T05:49:45.470Z,82.38
2023-04-15T05:52:12.046Z,83.40
2023-04-15T05:54:39.158Z,83.79
2023-04-15T05:57:05.756Z,85.12
2023-04-15T05:59:32.731Z,83.94
2023-04-15T06:01:59.554Z,85.08
2023-04-15T06:04:26.296Z,84.65
2023-04-15T06:06:53.035Z,84.47
2023-04-15T06:09:19.649Z,84.31
2023-04-15T06:11:46.315Z,84.17
2023-04-15T06:14:12.929Z,84.59
2023-04-15T06:16:39.644Z,84.63
2023-04-15T06:19:06.304Z,84.64
2023-04-15T06:21:40.657Z,84.32
2023-04-15T06:24:10.012Z,84.29
2023-04-15T06:26:36.580Z,83.58
2023-04-15T06:29:05.370Z,83.92
2023-04-15T06:31:32.073Z,83.71
2023-04-15T06:33:59.764Z,84.16
2023-04-15T06:36:26.591Z,84.62
2023-04-15T06:38:53.184Z,83.88
2023-04-15T06:41:19.772Z,83.75
2023-04-15T06:43:46.299Z,84.26
2023-04-15T06:46:13.020Z,84.62
2023-04-15T06:48:39.618Z,84.13
2023-04-15T06:51:06.261Z,84.74
2023-04-15T06:53:32.824Z,84.86
2023-04-15T06:55:59.466Z,83.91
2023-04-15T06:58:25.969Z,83.76
2023-04-15T07:00:53.488Z,83.67
2023-04-15T07:03:20.189Z,83.36
2023-04-15T07:05:47.403Z,83.09
2023-04-15T07:08:14.134Z,82.58
2023-04-15T07:10:40.741Z,82.45
2023-04-15T07:13:08.856Z,82.79
2023-04-15T07:15:36.276Z,82.25
2023-04-15T07:18:02.974Z,82.88
2023-04-15T07:20:29.692Z,83.29
2023-04-15T07:22:56.298Z,82.79
2023-04-15T07:25:22.934Z,84.24
2023-04-15T07:27:49.548Z,83.41
2023-04-15T07:30:16.215Z,82.59
2023-04-15T07:32:43.036Z,82.17
2023-04-15T07:35:09.876Z,83.98
2023-04-15T07:37:36.638Z,83.83
2023-04-15T07:40:05.498Z,85.09
2023-04-15T07:42:32.028Z,83.35
2023-04-15T07:44:58.646Z,83.80
2023-04-15T07:47:25.861Z,84.89
2023-04-15T07:49:52.770Z,84.20
2023-04-15T07:52:19.418Z,84.93
2023-04-15T07:54:48.930Z,84.17
2023-04-15T07:57:16.961Z,84.59
2023-04-15T07:59:43.522Z,84.43
2023-04-15T08:02:11.099Z,84.93
2023-04-15T08:04:38.766Z,84.13
2023-04-15T08:07:06.633Z,84.46
2023-04-15T08:09:33.214Z,83.62
2023-04-15T08:11:59.856Z,84.18
2023-04-15T08:14:26.467Z,84.43
2023-04-15T08:16:55.241Z,84.18
2023-04-15T08:19:21.854Z,83.67
2023-04-15T08:21:48.480Z,84.25
2023-04-15T08:24:15.714Z,84.13
2023-04-15T08:26:42.375Z,84.17
2023-04-15T08:29:09.326Z,84.68
2023-04-15T08:31:36.260Z,84.95
2023-04-15T08:34:03.655Z,85.05
2023-04-15T08:36:30.837Z,85.04
2023-04-15T08:38:57.362Z,84.63
2023-04-15T08:41:25.353Z,84.20
2023-04-15T08:43:55.177Z,83.15
2023-04-15T08:46:22.228Z,84.39
2023-04-15T08:48:49.607Z,84.80
2023-04-15T08:51:19.851Z,84.60
2023-04-15T08:53:47.525Z,84.25
2023-04-15T08:56:15.711Z,83.68
2023-04-15T08:58:44.933Z,84.33
2023-04-15T09:01:12.168Z,83.05
2023-04-15T09:03:39.186Z,84.05
2023-04-15T09:06:06.678Z,82.73
2023-04-15T09:08:35.022Z,83.46
2023-04-15T09:11:02.661Z,82.90
2023-04-15T09:13:30.209Z,83.73
2023-04-15T09:15:58.452Z,84.09
2023-04-15T09:18:48.109Z,84.03
2023-04-15T09:21:17.436Z,85.15
2023-04-15T09:23:57.188Z,85.17
2023-04-15T09:26:34.185Z,85.14
2023-04-15T09:29:05.990Z,85.84
2023-04-15T09:31:34.048Z,84.78
2023-04-15T09:34:00.963Z,84.73
2023-04-15T09:36:29.963Z,85.41
2023-04-15T09:39:00.072Z,84.66
2023-04-15T09:41:27.170Z,85.52
2023-04-15T09:43:53.741Z,85.29
2023-04-15T09:46:20.458Z,85.04
2023-04-15T09:48:47.147Z,85.10
2023-04-15T09:51:14.675Z,84.48
2023-04-15T09:53:41.359Z,85.15
2023-04-15T09:56:09.969Z,84.97
2023-04-15T09:58:38.829Z,83.95
2023-04-15T10:01:06.372Z,84.40
2023-04-15T10:03:35.986Z,84.29
2023-04-15T10:06:04.817Z,84.39
2023-04-15T10:08:33.144Z,83.58
2023-04-15T10:11:01.393Z,82.89
2023-04-15T10:13:30.536Z,82.48
2023-04-15T10:16:07.701Z,82.57
2023-04-15T10:18:38.677Z,83.38
2023-04-15T10:21:05.971Z,85.37
2023-04-15T10:23:32.699Z,85.66
2023-04-15T10:25:59.796Z,86.17
2023-04-15T10:28:26.683Z,84.65
2023-04-15T10:30:53.658Z,84.92
2023-04-15T10:33:22.940Z,86.05
2023-04-15T10:35:51.249Z,86.37
2023-04-15T10:38:41.818Z,86.63
2023-04-15T10:41:32.364Z,86.04
2023-04-15T10:44:03.094Z,85.85
2023-04-15T10:46:37.259Z,86.17
2023-04-15T10:49:27.336Z,85.24
2023-04-15T10:51:57.719Z,85.70
2023-04-15T10:54:24.255Z,84.82
2023-04-15T10:57:10.561Z,85.55
2023-04-15T10:59:37.991Z,86.10
2023-04-15T11:02:06.051Z,84.51
2023-04-15T11:04:51.487Z,83.87
2023-04-15T11:07:39.355Z,84.36
2023-04-15T11:10:18.184Z,83.34
2023-04-15T11:12:45.626Z,83.79
2023-04-15T11:15:30.601Z,84.34
2023-04-15T11:17:57.912Z,84.41
2023-04-15T11:20:24.860Z,83.61
2023-04-15T11:22:52.605Z,84.91
2023-04-15T11:25:37.662Z,84.39
2023-04-15T11:28:05.313Z,84.43
2023-04-15T11:30:33.504Z,82.61
2023-04-15T11:33:03.767Z,82.43
2023-04-15T11:35:30.861Z,82.32
2023-04-15T11:37:58.595Z,82.87
2023-04-15T11:40:27.212Z,83.81
2023-04-15T11:43:13.380Z,82.74
2023-04-15T11:45:51.538Z,82.44
2023-04-15T11:48:18.824Z,82.96
2023-04-15T11:50:45.586Z,82.28
2023-04-15T11:53:15.373Z,82.18
2023-04-15T11:55:50.548Z,81.09
2023-04-15T11:58:24.813Z,81.21
2023-04-15T12:00:57.628Z,82.19
2023-04-15T12:03:24.401Z,81.76
2023-04-15T12:06:06.491Z,81.30
2023-04-15T12:08:51.238Z,82.88
2023-04-15T12:11:17.865Z,81.57
2023-04-15T12:13:44.804Z,81.07
2023-04-15T12:16:11.521Z,80.58
2023-04-15T12:18:38.568Z,79.83
2023-04-15T12:21:10.265Z,81.01
2023-04-15T12:23:37.810Z,79.44
2023-04-15T12:26:07.604Z,80.41
2023-04-15T12:28:35.133Z,80.51
2023-04-15T12:31:06.881Z,79.69
2023-04-15T12:33:33.938Z,78.30
2023-04-15T12:36:00.570Z,78.99
2023-04-15T12:38:27.164Z,79.88
2023-04-15T12:40:54.238Z,80.45
2023-04-15T12:43:20.812Z,80.17
2023-04-15T12:45:47.734Z,79.23
2023-04-15T12:48:14.342Z,79.14
2023-04-15T12:50:40.899Z,79.08
2023-04-15T12:53:07.894Z,78.44
2023-04-15T12:55:36.636Z,78.67
2023-04-15T12:58:04.662Z,79.40
2023-04-15T13:00:33.720Z,78.18
2023-04-15T13:03:00.457Z,79.57
2023-04-15T13:05:27.088Z,79.01
2023-04-15T13:07:53.667Z,79.90
2023-04-15T13:10:21.013Z,79.00
2023-04-15T13:12:50.115Z,80.39
2023-04-15T13:15:20.707Z,80.75
2023-04-15T13:17:50.674Z,79.88
2023-04-15T13:20:17.541Z,80.15
2023-04-15T13:22:44.146Z,79.29
2023-04-15T13:25:10.773Z,78.73
2023-04-15T13:27:37.584Z,77.58
2023-04-15T13:30:05.670Z,78.59
2023-04-15T13:32:32.359Z,78.42
2023-04-15T13:34:59.440Z,78.38
2023-04-15T13:37:29.605Z,79.09
2023-04-15T13:39:56.579Z,78.86
2023-04-15T13:42:23.769Z,79.04
2023-04-15T13:44:51.634Z,79.03
2023-04-15T13:47:19.283Z,79.58
2023-04-15T13:49:46.008Z,79.49
2023-04-15T13:52:12.784Z,79.92
2023-04-15T13:54:39.548Z,79.92
2023-04-15T13:57:06.456Z,80.11
2023-04-15T13:59:33.609Z,80.23
2023-04-15T14:02:00.318Z,80.50
2023-04-15T14:04:27.180Z,80.36
2023-04-15T14:06:54.044Z,80.39
2023-04-15T14:09:24.963Z,79.57
2023-04-15T14:11:52.971Z,79.50
2023-04-15T14:14:19.537Z,80.71
2023-04-15T14:16:46.234Z,80.87
2023-04-15T14:19:12.895Z,81.04
2023-04-15T14:21:39.550Z,80.65
2023-04-15T14:24:06.334Z,80.90
2023-04-15T14:26:32.987Z,79.94
2023-04-15T14:28:59.754Z,80.80
2023-04-15T14:31:26.465Z,79.91
2023-04-15T14:33:53.042Z,79.91
2023-04-15T14:36:19.669Z,79.50
2023-04-15T14:38:47.503Z,79.20
2023-04-15T14:41:16.584Z,78.94
2023-04-15T14:43:43.128Z,80.49
2023-04-15T14:46:10.915Z,80.28
2023-04-15T14:48:39.890Z,80.05
2023-04-15T14:51:06.725Z,80.35
2023-04-15T14:53:33.336Z,80.52
2023-04-15T14:55:59.924Z,80.79
2023-04-15T14:58:26.515Z,80.43
2023-04-15T15:00:53.471Z,79.96
2023-04-15T15:03:20.137Z,79.72
2023-04-15T15:05:46.992Z,80.18
2023-04-15T15:08:14.254Z,80.49
2023-04-15T15:10:48.559Z,79.97
2023-04-15T15:13:16.667Z,79.73
2023-04-15T15:15:43.315Z,81.19
2023-04-15T15:18:12.774Z,80.66
2023-04-15T15:20:39.410Z,79.95
2023-04-15T15:23:06.158Z,79.70
2023-04-15T15:25:32.687Z,79.29
2023-04-15T15:27:59.423Z,79.28
2023-04-15T15:30:26.210Z,79.01
2023-04-15T15:32:52.887Z,79.63
2023-04-15T15:35:19.592Z,79.13
2023-04-15T15:37:46.140Z,78.66
2023-04-15T15:40:12.843Z,79.76
2023-04-15T15:42:39.454Z,80.17
2023-04-15T15:45:06.404Z,80.34
2023-04-15T15:47:33.271Z,79.95
2023-04-15T15:50:00.618Z,80.46
2023-04-15T15:52:27.387Z,83.08
2023-04-15T15:54:54.449Z,83.13
2023-04-15T15:57:21.216Z,84.81
2023-04-15T15:59:47.780Z,83.74
2023-04-15T16:02:14.487Z,84.13
2023-04-15T16:04:43.202Z,84.80
2023-04-15T16:07:11.694Z,84.23
2023-04-15T16:09:40.483Z,83.92
2023-04-15T16:12:07.142Z,83.08
2023-04-15T16:14:33.706Z,82.47
2023-04-15T16:17:00.251Z,83.12
2023-04-15T16:19:26.816Z,82.81
2023-04-15T16:21:55.090Z,81.96
2023-04-15T16:24:21.658Z,83.32
2023-04-15T16:26:48.268Z,82.01
2023-04-15T16:29:14.831Z,82.45
2023-04-15T16:31:41.615Z,81.91
2023-04-15T16:34:08.402Z,81.71
2023-04-15T16:36:35.996Z,81.94
2023-04-15T16:39:02.731Z,82.04
2023-04-15T16:41:29.604Z,81.05
2023-04-15T16:43:56.981Z,81.20
2023-04-15T16:46:23.655Z,80.44
2023-04-15T16:48:50.851Z,80.75
2023-04-15T16:51:17.467Z,81.06
2023-04-15T16:53:44.031Z,80.40
2023-04-15T16:56:10.876Z,81.42
2023-04-15T16:58:37.497Z,80.87
2023-04-15T17:01:04.383Z,80.90
2023-04-15T17:03:31.213Z,81.46
2023-04-15T17:05:58.114Z,82.80
2023-04-15T17:08:24.792Z,82.75
2023-04-15T17:10:51.951Z,83.63
2023-04-15T17:13:18.558Z,83.72
2023-04-15T17:15:45.334Z,83.12
2023-04-15T17:18:12.192Z,84.81
2023-04-15T17:20:41.431Z,85.64
2023-04-15T17:23:08.012Z,84.72
2023-04-15T17:25:34.636Z,84.96
2023-04-15T17:28:01.360Z,84.29
2023-04-15T17:30:28.027Z,84.49
2023-04-15T17:32:55.028Z,85.29
2023-04-15T17:35:23.594Z,86.01
2023-04-15T17:37:50.113Z,85.28
2023-04-15T17:40:16.793Z,85.13
2023-04-15T17:42:43.424Z,86.64
2023-04-15T17:45:10.333Z,85.96
2023-04-15T17:47:36.906Z,85.18
2023-04-15T17:50:04.429Z,85.45
2023-04-15T17:52:30.955Z,84.77
2023-04-15T17:54:57.537Z,84.25
2023-04-15T17:57:25.242Z,83.93
2023-04-15T17:59:51.841Z,84.28
2023-04-15T18:02:18.558Z,84.43
2023-04-15T18:04:50.551Z,82.87
2023-04-15T18:07:17.265Z,82.13
2023-04-15T18:09:44.398Z,82.21
2023-04-15T18:12:11.096Z,80.56
2023-04-15T18:14:37.627Z,80.15
2023-04-15T18:17:04.295Z,80.29
2023-04-15T18:19:30.897Z,80.52
2023-04-15T18:22:00.133Z,80.92
2023-04-15T18:24:27.066Z,80.50
2023-04-15T18:26:54.003Z,80.89
2023-04-15T18:29:20.615Z,81.30
2023-04-15T18:31:47.342Z,80.29
2023-04-15T18:34:13.936Z,80.15
2023-04-15T18:36:40.551Z,81.34
2023-04-15T18:39:07.360Z,81.01
2023-04-15T18:41:36.857Z,81.47
2023-04-15T18:44:03.436Z,80.43
2023-04-15T18:46:30.286Z,80.79
2023-04-15T18:48:56.800Z,80.34
2023-04-15T18:51:23.522Z,80.46
2023-04-15T18:53:50.531Z,80.33
2023-04-15T18:56:17.290Z,79.22
2023-04-15T18:59:27.855Z,79.97
2023-04-15T19:01:33.385Z,80.31
2023-04-15T19:04:00.083Z,80.61
2023-04-15T19:06:27.327Z,80.98
2023-04-15T19:08:54.441Z,80.35
2023-04-15T19:11:23.137Z,80.46
2023-04-15T19:13:49.741Z,80.14
2023-04-15T19:16:16.507Z,80.58
2023-04-15T19:18:43.274Z,80.44
2023-04-15T19:21:11.204Z,81.82
2023-04-15T19:23:38.125Z,81.68
2023-04-15T19:26:04.828Z,82.14
2023-04-15T19:28:31.403Z,82.21
2023-04-15T19:31:00.503Z,83.09
2023-04-15T19:33:31.137Z,84.03
2023-04-15T19:38:47.726Z,84.32
2023-04-15T19:41:15.480Z,84.44
2023-04-15T19:43:42.004Z,84.97
2023-04-15T19:46:08.724Z,85.33
2023-04-15T19:48:35.334Z,86.14
2023-04-15T19:51:01.904Z,86.41
2023-04-15T19:53:29.074Z,85.77
2023-04-15T19:55:55.953Z,85.82
2023-04-15T19:58:23.092Z,87.27
2023-04-15T20:00:49.705Z,87.04
2023-04-15T20:03:16.485Z,87.06
2023-04-15T20:05:43.462Z,87.17
2023-04-15T20:08:10.026Z,86.29
2023-04-15T20:10:37.286Z,85.58
2023-04-15T20:13:03.933Z,86.33
2023-04-15T20:15:30.656Z,86.20
2023-04-15T20:17:57.427Z,85.31
2023-04-15T20:20:26.164Z,86.13
2023-04-15T20:22:53.200Z,85.72
2023-04-15T20:25:19.993Z,87.57
2023-04-15T20:27:46.522Z,86.68
2023-04-15T20:30:13.114Z,87.08
2023-04-15T20:32:39.718Z,87.87
2023-04-15T20:35:07.002Z,86.87
2023-04-15T20:37:33.942Z,85.68
2023-04-15T20:40:00.895Z,85.95
2023-04-15T20:42:27.494Z,86.19
2023-04-15T20:44:54.161Z,86.30
2023-04-15T20:47:20.932Z,85.86
2023-04-15T20:49:47.556Z,86.35
2023-04-15T20:52:14.228Z,85.55
2023-04-15T20:54:40.836Z,84.41
2023-04-15T20:57:07.371Z,84.89
2023-04-15T20:59:34.885Z,84.42
2023-04-15T21:02:01.840Z,84.32
2023-04-15T21:04:28.561Z,84.73
2023-04-15T21:06:56.096Z,85.43
2023-04-15T21:09:22.706Z,85.01
2023-04-15T21:14:23.895Z,84.51
2023-04-15T21:16:50.628Z,85.46
2023-04-15T21:19:17.246Z,85.45
2023-04-15T21:21:43.804Z,86.08
2023-04-15T21:24:10.566Z,86.49
2023-04-15T21:26:37.095Z,86.89
2023-04-15T21:29:09.463Z,86.23
2023-04-15T21:31:37.988Z,87.11
2023-04-15T21:34:05.238Z,87.88
2023-04-15T21:36:32.321Z,87.09
2023-04-15T21:38:58.862Z,87.94
2023-04-15T21:41:25.884Z,87.12
2023-04-15T21:43:52.883Z,87.26
2023-04-15T21:46:21.864Z,86.50
2023-04-15T21:48:52.362Z,86.57
2023-04-15T21:51:18.925Z,87.50
2023-04-15T21:53:45.689Z,87.26
2023-04-15T21:56:12.282Z,88.36
2023-04-15T21:58:41.219Z,87.89
2023-04-15T22:01:07.946Z,86.70
2023-04-15T22:03:37.875Z,87.37
2023-04-15T22:06:04.660Z,86.92
2023-04-15T22:08:44.599Z,85.72
2023-04-15T22:11:26.840Z,86.78
2023-04-15T22:13:54.286Z,86.67
2023-04-15T22:16:22.823Z,88.26
2023-04-15T22:18:51.584Z,88.21
2023-04-15T22:21:18.184Z,87.06
2023-04-15T22:23:50.996Z,87.00
2023-04-15T22:26:17.948Z,87.11
2023-04-15T22:28:44.527Z,87.63
2023-04-15T22:31:11.408Z,88.11
2023-04-15T22:33:41.338Z,88.24
2023-04-15T22:36:08.070Z,89.18
2023-04-15T22:38:34.625Z,88.19
2023-04-15T22:41:01.290Z,88.73
2023-04-15T22:43:27.942Z,88.42
2023-04-15T22:45:55.138Z,87.83
2023-04-15T22:48:22.066Z,86.65
2023-04-15T22:50:51.692Z,86.72
2023-04-15T22:53:21.265Z,86.68
2023-04-15T22:55:48.326Z,87.16
2023-04-15T22:58:15.895Z,87.54
2023-04-15T23:00:42.785Z,86.09
2023-04-15T23:03:09.514Z,86.52
2023-04-15T23:05:36.597Z,86.40
2023-04-15T23:08:03.476Z,86.26
2023-04-15T23:10:30.135Z,87.24
2023-04-15T23:12:56.676Z,87.05
2023-04-15T23:15:23.355Z,86.57
2023-04-15T23:17:53.109Z,87.13
2023-04-15T23:20:19.748Z,85.94
2023-04-15T23:22:46.334Z,85.36
2023-04-15T23:25:13.073Z,87.05
2023-04-15T23:27:39.612Z,86.08
2023-04-15T23:30:06.718Z,86.21
2023-04-15T23:32:35.549Z,86.38
2023-04-15T23:35:02.155Z,86.64
2023-04-15T23:37:29.574Z,85.95
2023-04-15T23:39:56.159Z,85.77
2023-04-15T23:42:24.174Z,87.09
2023-04-15T23:44:53.233Z,87.47
2023-04-15T23:47:19.822Z,85.92
2023-04-15T23:49:46.671Z,86.86
2023-04-15T23:52:13.241Z,86.71
2023-04-15T23:54:39.826Z,87.98
2023-04-15T23:57:06.364Z,87.49
2023-04-15T23:59:32.988Z,87.22
